Time;durP1;ratioP1;P1;durP2;ratioP2;P2;SDS_P1;SDS_P2;PMS_P1;PMS_P2;Temp;Humidity;BMP_temperature;BMP_pressure;BME280_temperature;BME280_humidity;BME280_pressure;Samples;Min_cycle;Max_cycle;Signal;HPM_P1;HPM_P2
2022/07/17 00:01:04;;;;;;;7.65;2.58;;;22.30;79.70;;;;;;5125805;27;20050;-71
2022/07/17 00:03:30;;;;;;;5.97;2.15;;;22.30;79.80;;;;;;5127310;27;20178;-72
2022/07/17 00:05:56;;;;;;;3.83;2.38;;;22.20;79.80;;;;;;5125946;27;20866;-71
2022/07/17 00:08:21;;;;;;;3.35;1.50;;;22.20;79.90;;;;;;5125792;27;20144;-72
2022/07/17 00:10:47;;;;;;;5.97;1.70;;;22.00;79.80;;;;;;5126656;27;20047;-72
2022/07/17 00:13:13;;;;;;;2.88;1.80;;;22.10;80.00;;;;;;5126669;27;20050;-72
2022/07/17 00:15:39;;;;;;;3.53;1.88;;;22.10;80.00;;;;;;5124478;27;20509;-72
2022/07/17 00:18:06;;;;;;;7.03;2.20;;;22.10;80.10;;;;;;5125749;27;20130;-71
2022/07/17 00:20:32;;;;;;;3.45;2.15;;;22.00;80.10;;;;;;5125427;27;20040;-71
2022/07/17 00:22:58;;;;;;;4.13;1.92;;;22.00;80.20;;;;;;5128119;27;20032;-71
2022/07/17 00:25:25;;;;;;;5.10;2.45;;;22.00;80.30;;;;;;5126235;27;20040;-72
2022/07/17 00:27:51;;;;;;;7.20;1.85;;;22.00;80.40;;;;;;5127196;27;20050;-72
2022/07/17 00:30:17;;;;;;;4.22;1.77;;;22.00;80.50;;;;;;5126887;27;20070;-71
2022/07/17 00:32:43;;;;;;;3.00;1.70;;;21.90;80.50;;;;;;5110093;27;20047;-71
2022/07/17 00:35:09;;;;;;;4.95;2.08;;;21.90;80.60;;;;;;5124710;27;20039;-71
2022/07/17 00:37:40;;;;;;;3.90;1.75;;;21.90;80.60;;;;;;5127064;27;20086;-71
2022/07/17 00:40:07;;;;;;;7.57;2.40;;;21.90;80.70;;;;;;5124973;27;20039;-72
2022/07/17 00:42:33;;;;;;;4.25;2.13;;;21.90;80.80;;;;;;5126120;27;20054;-72
2022/07/17 00:44:59;;;;;;;3.53;1.77;;;21.80;80.80;;;;;;5125808;27;20046;-72
2022/07/17 00:47:24;;;;;;;3.97;2.10;;;21.80;80.80;;;;;;5126640;27;20426;-72
2022/07/17 00:49:50;;;;;;;1.92;1.40;;;21.70;80.90;;;;;;5124956;27;20039;-71
2022/07/17 00:52:17;;;;;;;3.38;1.60;;;21.70;81.00;;;;;;5126629;27;20083;-71
2022/07/17 00:54:44;;;;;;;3.95;2.40;;;21.70;81.10;;;;;;5124499;27;20047;-71
2022/07/17 00:57:13;;;;;;;3.08;1.85;;;21.70;81.20;;;;;;5126413;27;20122;-72
2022/07/17 00:59:40;;;;;;;2.67;1.77;;;21.70;81.20;;;;;;5126353;27;20540;-71
2022/07/17 01:02:11;;;;;;;2.58;1.48;;;21.60;81.20;;;;;;5124170;27;20555;-72
2022/07/17 01:04:37;;;;;;;2.90;1.90;;;21.60;81.30;;;;;;5126383;27;20058;-72
2022/07/17 01:07:05;;;;;;;3.25;1.98;;;21.60;81.30;;;;;;5123965;27;20067;-72
2022/07/17 01:09:32;;;;;;;4.72;2.28;;;21.60;81.40;;;;;;5126766;27;20525;-72
2022/07/17 01:11:58;;;;;;;2.75;1.50;;;21.60;81.50;;;;;;5124271;27;20035;-72
2022/07/17 01:14:26;;;;;;;3.30;2.05;;;21.60;81.50;;;;;;5125563;27;20047;-72
2022/07/17 01:16:52;;;;;;;2.92;1.60;;;21.60;81.70;;;;;;5126188;27;20047;-71
2022/07/17 01:19:19;;;;;;;3.85;1.95;;;21.60;82.30;;;;;;5125536;27;20035;-72
2022/07/17 01:21:47;;;;;;;4.43;2.47;;;21.60;81.80;;;;;;5126022;27;20425;-72
2022/07/17 01:24:14;;;;;;;3.95;1.65;;;21.50;81.80;;;;;;5127053;27;20060;-72
2022/07/17 01:26:45;;;;;;;2.30;1.70;;;21.50;81.80;;;;;;5125739;27;21226;-72
2022/07/17 01:29:12;;;;;;;3.25;1.42;;;21.40;81.80;;;;;;5124189;27;20044;-72
2022/07/17 01:31:41;;;;;;;4.50;1.65;;;21.40;81.90;;;;;;5124191;27;20067;-72
2022/07/17 01:34:08;;;;;;;4.57;1.65;;;21.40;82.60;;;;;;5126323;27;20039;-72
2022/07/17 01:36:35;;;;;;;2.88;1.70;;;21.30;82.00;;;;;;5125184;27;20042;-72
2022/07/17 01:39:02;;;;;;;2.63;1.60;;;21.30;82.00;;;;;;5125958;27;20106;-72
2022/07/17 01:41:27;;;;;;;2.55;1.85;;;21.30;82.10;;;;;;5125878;27;20040;-72
2022/07/17 01:43:53;;;;;;;3.95;1.90;;;21.20;82.10;;;;;;5123852;27;20039;-72
2022/07/17 01:46:19;;;;;;;3.58;1.30;;;21.20;82.10;;;;;;5124181;27;20574;-72
2022/07/17 01:48:45;;;;;;;2.55;1.50;;;21.20;82.20;;;;;;5127156;27;20044;-72
2022/07/17 01:51:10;;;;;;;3.88;1.67;;;21.20;82.20;;;;;;5125863;27;20109;-72
2022/07/17 01:53:36;;;;;;;2.75;1.77;;;21.20;82.30;;;;;;5124096;27;20067;-72
2022/07/17 01:56:02;;;;;;;4.25;2.05;;;21.20;82.30;;;;;;5125791;27;20115;-71
2022/07/17 01:58:28;;;;;;;3.20;1.83;;;21.10;82.30;;;;;;5124129;27;20047;-72
2022/07/17 02:00:54;;;;;;;5.07;1.45;;;21.10;82.30;;;;;;5124990;27;20054;-72
2022/07/17 02:03:20;;;;;;;2.55;1.42;;;21.10;82.30;;;;;;5124050;27;20047;-72
2022/07/17 02:05:46;;;;;;;2.47;1.42;;;21.10;82.40;;;;;;5125582;27;20036;-72
2022/07/17 02:08:12;;;;;;;2.60;1.33;;;21.10;82.50;;;;;;5124464;27;20073;-71
2022/07/17 02:10:38;;;;;;;3.65;1.85;;;21.00;82.50;;;;;;5125158;27;20076;-72
2022/07/17 02:13:04;;;;;;;2.00;1.40;;;21.00;82.50;;;;;;5109429;27;20039;-72
2022/07/17 02:15:30;;;;;;;3.50;1.48;;;21.00;82.50;;;;;;5122763;27;20063;-72
2022/07/17 02:17:56;;;;;;;3.30;1.83;;;21.00;82.60;;;;;;5125546;27;20048;-72
2022/07/17 02:20:22;;;;;;;2.22;1.40;;;20.90;82.60;;;;;;5123388;27;20048;-71
2022/07/17 02:22:49;;;;;;;7.03;1.88;;;20.90;82.70;;;;;;5125459;27;20054;-71
2022/07/17 02:25:15;;;;;;;4.32;1.65;;;20.90;82.80;;;;;;5124139;27;20042;-71
2022/07/17 02:27:41;;;;;;;2.60;1.45;;;20.90;82.80;;;;;;5109229;27;20499;-72
2022/07/17 02:30:12;;;;;;;4.80;1.60;;;20.80;82.80;;;;;;5124334;27;20039;-72
2022/07/17 02:32:38;;;;;;;2.15;1.25;;;20.80;82.90;;;;;;5126411;27;20043;-71
2022/07/17 02:35:05;;;;;;;3.00;2.08;;;20.80;83.00;;;;;;5129395;27;20171;-72
2022/07/17 02:37:31;;;;;;;6.07;2.00;;;20.80;83.00;;;;;;5126954;27;20782;-72
2022/07/17 02:39:58;;;;;;;2.08;1.75;;;20.70;83.00;;;;;;5129443;27;20176;-72
2022/07/17 02:42:25;;;;;;;3.00;1.83;;;20.70;83.10;;;;;;5121003;27;20044;-71
2022/07/17 02:44:52;;;;;;;2.63;1.50;;;20.70;83.20;;;;;;5124603;27;20513;-71
2022/07/17 02:47:33;;;;;;;3.55;1.73;;;20.70;83.20;;;;;;5125798;27;20043;-72
2022/07/17 02:50:01;;;;;;;3.95;2.10;;;20.70;83.30;;;;;;5124381;27;20605;-72
2022/07/17 02:52:27;;;;;;;3.28;1.83;;;20.70;83.30;;;;;;5128105;27;20631;-71
2022/07/17 02:54:53;;;;;;;2.63;2.00;;;20.70;83.40;;;;;;5127873;27;20062;-71
2022/07/17 02:57:18;;;;;;;3.08;1.75;;;20.60;83.40;;;;;;5126108;27;20042;-74
2022/07/17 02:59:46;;;;;;;3.22;1.27;;;20.60;83.50;;;;;;5128100;27;20040;-73
2022/07/17 03:02:12;;;;;;;2.90;1.52;;;20.60;83.60;;;;;;5128290;27;20043;-72
2022/07/17 03:04:37;;;;;;;4.07;1.80;;;20.60;83.60;;;;;;5128116;27;20039;-72
2022/07/17 03:07:03;;;;;;;2.60;1.70;;;20.60;83.70;;;;;;5126726;27;20463;-72
2022/07/17 03:09:29;;;;;;;2.80;1.50;;;20.50;83.70;;;;;;5128271;27;20059;-71
2022/07/17 03:11:55;;;;;;;3.35;1.58;;;20.50;83.70;;;;;;5125357;27;20089;-71
2022/07/17 03:14:21;;;;;;;2.67;1.52;;;20.40;83.80;;;;;;5125799;27;20113;-72
2022/07/17 03:16:47;;;;;;;3.00;1.70;;;20.50;84.00;;;;;;5126662;27;20048;-71
2022/07/17 03:19:12;;;;;;;2.53;1.70;;;20.40;84.10;;;;;;5128366;27;20035;-71
2022/07/17 03:21:38;;;;;;;3.58;1.85;;;20.40;84.20;;;;;;5126886;27;20039;-71
2022/07/17 03:24:04;;;;;;;3.97;1.70;;;20.40;84.20;;;;;;5125571;27;20051;-72
2022/07/17 03:26:30;;;;;;;2.60;1.75;;;20.40;84.20;;;;;;5127543;27;20098;-72
2022/07/17 03:28:56;;;;;;;4.70;1.80;;;20.40;84.30;;;;;;5127924;27;20048;-72
2022/07/17 03:31:21;;;;;;;2.90;1.60;;;20.30;84.30;;;;;;5107941;27;20047;-72
2022/07/17 03:33:47;;;;;;;3.60;1.70;;;20.30;84.40;;;;;;5126266;27;20355;-71
2022/07/17 03:36:13;;;;;;;3.30;2.13;;;20.30;84.40;;;;;;5127983;27;20510;-71
2022/07/17 03:38:38;;;;;;;3.50;1.98;;;20.20;84.40;;;;;;5126321;27;20798;-72
2022/07/17 03:41:04;;;;;;;3.80;2.20;;;20.20;84.50;;;;;;5123931;27;20035;-72
2022/07/17 03:43:30;;;;;;;3.45;1.58;;;20.10;84.50;;;;;;5126506;27;20035;-72
2022/07/17 03:45:56;;;;;;;4.72;1.77;;;20.10;84.60;;;;;;5126394;27;20132;-72
2022/07/17 03:48:21;;;;;;;5.00;1.80;;;20.10;84.70;;;;;;5125089;27;20116;-71
2022/07/17 03:50:47;;;;;;;4.15;1.90;;;20.10;84.70;;;;;;5124469;27;20513;-72
2022/07/17 03:53:13;;;;;;;4.88;2.35;;;20.00;84.80;;;;;;5126571;27;20143;-72
2022/07/17 03:55:39;;;;;;;2.67;1.70;;;20.00;84.80;;;;;;5109701;27;20040;-72
2022/07/17 03:58:04;;;;;;;2.55;1.50;;;19.90;85.50;;;;;;5109963;27;20098;-72
2022/07/17 04:00:30;;;;;;;4.97;1.92;;;19.90;85.00;;;;;;5126790;27;20070;-71
2022/07/17 04:02:56;;;;;;;3.72;2.25;;;19.90;85.10;;;;;;5124398;27;20434;-71
2022/07/17 04:05:22;;;;;;;4.78;1.85;;;19.80;85.10;;;;;;5124063;27;20154;-71
2022/07/17 04:07:48;;;;;;;3.15;2.15;;;19.80;85.30;;;;;;5126330;27;20891;-71
2022/07/17 04:10:14;;;;;;;3.22;1.80;;;19.80;85.50;;;;;;5124411;27;20044;-71
2022/07/17 04:12:41;;;;;;;3.55;1.85;;;19.80;85.50;;;;;;5125228;27;20039;-71
2022/07/17 04:15:08;;;;;;;3.03;1.65;;;19.80;85.50;;;;;;5123505;27;20116;-71
2022/07/17 04:17:34;;;;;;;5.85;2.03;;;19.70;85.50;;;;;;5125295;27;20108;-71
2022/07/17 04:20:00;;;;;;;2.50;1.77;;;19.70;85.60;;;;;;5126566;27;20043;-70
2022/07/17 04:22:25;;;;;;;4.70;2.13;;;19.70;85.80;;;;;;5124560;27;20048;-71
2022/07/17 04:24:52;;;;;;;4.20;2.25;;;19.60;86.00;;;;;;5124815;27;20043;-72
2022/07/17 04:27:18;;;;;;;4.32;2.03;;;19.60;86.10;;;;;;5124243;27;20134;-71
2022/07/17 04:29:44;;;;;;;3.00;1.75;;;19.60;86.10;;;;;;5126455;27;20110;-72
2022/07/17 04:32:10;;;;;;;2.70;1.60;;;19.50;86.10;;;;;;5122934;27;20044;-73
2022/07/17 04:34:36;;;;;;;4.80;2.10;;;19.60;86.20;;;;;;5125279;27;20173;-72
2022/07/17 04:37:03;;;;;;;3.13;2.05;;;19.60;86.30;;;;;;5109413;27;20044;-73
2022/07/17 04:39:29;;;;;;;3.90;2.13;;;19.60;86.20;;;;;;5123212;27;20074;-73
2022/07/17 04:41:55;;;;;;;3.17;1.58;;;19.50;86.20;;;;;;5124888;27;20050;-72
2022/07/17 04:44:21;;;;;;;3.67;2.30;;;19.50;86.30;;;;;;5122954;27;20126;-72
2022/07/17 04:46:47;;;;;;;3.08;2.10;;;19.50;86.40;;;;;;5126086;27;20051;-73
2022/07/17 04:49:13;;;;;;;7.03;2.20;;;19.40;86.50;;;;;;5124795;27;20556;-73
2022/07/17 04:51:39;;;;;;;4.22;2.03;;;19.50;86.60;;;;;;5124781;27;20093;-72
2022/07/17 04:54:05;;;;;;;3.78;1.83;;;19.50;86.70;;;;;;5124844;27;20047;-72
2022/07/17 04:56:30;;;;;;;6.50;2.38;;;19.50;86.60;;;;;;5125478;27;20070;-72
2022/07/17 04:58:56;;;;;;;4.25;2.03;;;19.50;86.80;;;;;;5125167;27;20049;-73
2022/07/17 05:01:22;;;;;;;2.72;1.90;;;19.50;86.80;;;;;;5124943;27;20115;-72
2022/07/17 05:03:48;;;;;;;3.40;1.85;;;19.40;86.90;;;;;;5124047;27;20131;-72
2022/07/17 05:06:14;;;;;;;4.85;2.03;;;19.40;87.10;;;;;;5124935;27;20055;-72
2022/07/17 05:08:39;;;;;;;5.55;2.17;;;19.40;87.10;;;;;;5124544;27;20048;-72
2022/07/17 05:11:05;;;;;;;2.85;1.80;;;19.40;87.20;;;;;;5124154;27;20047;-72
2022/07/17 05:13:31;;;;;;;2.53;1.73;;;19.40;87.30;;;;;;5123093;27;20035;-73
2022/07/17 05:15:57;;;;;;;4.15;2.03;;;19.40;87.20;;;;;;5127247;27;20047;-72
2022/07/17 05:18:22;;;;;;;5.10;1.80;;;19.50;87.40;;;;;;5122699;27;20455;-73
2022/07/17 05:20:48;;;;;;;5.75;2.58;;;19.40;87.40;;;;;;5124552;27;20039;-72
2022/07/17 05:23:14;;;;;;;3.55;2.10;;;19.50;87.60;;;;;;5124217;27;20612;-72
2022/07/17 05:25:40;;;;;;;3.22;2.13;;;19.50;87.50;;;;;;5124795;27;20046;-72
2022/07/17 05:28:05;;;;;;;3.80;2.03;;;19.50;87.60;;;;;;5139960;27;20054;-73
2022/07/17 05:30:31;;;;;;;4.65;2.35;;;19.50;87.70;;;;;;5125169;27;20059;-73
2022/07/17 05:32:57;;;;;;;3.13;1.60;;;19.50;87.70;;;;;;5124019;27;20035;-72
2022/07/17 05:35:23;;;;;;;5.88;2.88;;;19.50;87.70;;;;;;5123384;27;20049;-72
2022/07/17 05:37:49;;;;;;;3.88;1.88;;;19.60;87.80;;;;;;5122615;27;20525;-72
2022/07/17 05:40:14;;;;;;;2.30;1.63;;;19.60;87.80;;;;;;5125587;27;20062;-72
2022/07/17 05:42:40;;;;;;;4.70;1.73;;;19.60;87.80;;;;;;5124346;27;20487;-72
2022/07/17 05:45:06;;;;;;;4.22;2.30;;;19.60;87.70;;;;;;5123483;27;20792;-73
2022/07/17 05:47:32;;;;;;;3.65;1.85;;;19.70;87.90;;;;;;5108523;27;20031;-73
2022/07/17 05:49:58;;;;;;;3.83;2.03;;;19.60;87.80;;;;;;5124306;27;20631;-73
2022/07/17 05:52:24;;;;;;;5.88;2.05;;;19.70;87.90;;;;;;5125362;27;20039;-72
2022/07/17 05:54:49;;;;;;;3.20;1.98;;;19.70;87.90;;;;;;5108801;27;20109;-73
2022/07/17 05:57:15;;;;;;;3.58;1.65;;;19.70;87.90;;;;;;5124406;27;20039;-73
2022/07/17 05:59:41;;;;;;;4.68;1.98;;;19.70;88.00;;;;;;5125692;27;20653;-72
2022/07/17 06:02:07;;;;;;;4.15;2.28;;;19.70;88.10;;;;;;5122207;27;20068;-72
2022/07/17 06:04:33;;;;;;;3.25;1.70;;;19.70;88.20;;;;;;5106059;27;20044;-73
2022/07/17 06:06:59;;;;;;;2.58;1.48;;;19.70;88.20;;;;;;5123073;27;20398;-72
2022/07/17 06:09:24;;;;;;;5.03;2.53;;;19.80;88.20;;;;;;5130164;27;20051;-72
2022/07/17 06:11:50;;;;;;;5.07;1.85;;;19.80;88.20;;;;;;5127122;27;20109;-72
2022/07/17 06:14:16;;;;;;;3.15;1.70;;;19.80;88.20;;;;;;5126431;27;20039;-72
2022/07/17 06:16:42;;;;;;;4.95;1.60;;;19.80;88.20;;;;;;5128378;27;20205;-73
2022/07/17 06:19:08;;;;;;;3.03;1.55;;;19.90;88.20;;;;;;5128247;27;20490;-72
2022/07/17 06:21:33;;;;;;;3.30;2.10;;;19.90;88.20;;;;;;5126073;27;20043;-72
2022/07/17 06:23:59;;;;;;;3.10;1.75;;;20.00;88.20;;;;;;5127168;27;20519;-72
2022/07/17 06:26:25;;;;;;;3.08;1.83;;;20.10;88.30;;;;;;5128026;27;20043;-72
2022/07/17 06:28:51;;;;;;;2.72;1.38;;;20.10;88.20;;;;;;5126114;27;20044;-72
2022/07/17 06:31:17;;;;;;;3.75;2.10;;;20.20;88.10;;;;;;5125805;27;20499;-72
2022/07/17 06:33:43;;;;;;;3.63;1.95;;;20.20;88.10;;;;;;5126991;27;20047;-72
2022/07/17 06:36:08;;;;;;;4.18;1.65;;;20.20;88.00;;;;;;5127898;27;20044;-72
2022/07/17 06:38:34;;;;;;;2.25;1.33;;;20.30;87.80;;;;;;5127736;27;20039;-72
2022/07/17 06:41:01;;;;;;;2.30;1.50;;;20.30;87.80;;;;;;5126793;27;20447;-73
2022/07/17 06:43:27;;;;;;;3.10;1.92;;;20.30;87.70;;;;;;5128053;27;20686;-73
2022/07/17 06:45:54;;;;;;;3.28;1.60;;;20.40;87.60;;;;;;5125068;27;20047;-73
2022/07/17 06:48:20;;;;;;;2.65;1.60;;;20.40;87.60;;;;;;5126598;27;20031;-72
2022/07/17 06:50:46;;;;;;;3.28;1.52;;;20.40;87.50;;;;;;5126474;27;20050;-72
2022/07/17 06:53:13;;;;;;;2.80;1.80;;;20.40;87.40;;;;;;5128147;27;20565;-72
2022/07/17 06:55:39;;;;;;;2.55;1.70;;;20.40;87.50;;;;;;5126433;27;20556;-72
2022/07/17 06:58:04;;;;;;;4.03;1.85;;;20.40;87.50;;;;;;5127644;27;20066;-72
2022/07/17 07:00:30;;;;;;;3.25;1.60;;;20.40;87.40;;;;;;5127542;27;20416;-72
2022/07/17 07:02:57;;;;;;;2.50;1.70;;;20.50;87.50;;;;;;5110100;27;20067;-72
2022/07/17 07:05:23;;;;;;;2.47;1.40;;;20.50;87.40;;;;;;5125506;27;20039;-72
2022/07/17 07:07:49;;;;;;;1.88;1.25;;;20.50;87.50;;;;;;5126064;27;20153;-72
2022/07/17 07:10:15;;;;;;;4.20;1.48;;;20.60;87.40;;;;;;5126283;27;20581;-72
2022/07/17 07:12:41;;;;;;;3.85;2.13;;;20.60;87.20;;;;;;5127838;27;21257;-72
2022/07/17 07:15:07;;;;;;;2.42;1.27;;;20.60;87.20;;;;;;5126179;27;20051;-72
2022/07/17 07:17:34;;;;;;;3.60;1.83;;;20.70;87.10;;;;;;5125208;27;20042;-73
2022/07/17 07:20:04;;;;;;;3.47;1.48;;;20.70;87.00;;;;;;5126304;27;20597;-73
2022/07/17 07:22:31;;;;;;;2.13;1.85;;;20.80;86.80;;;;;;5108598;27;20039;-73
2022/07/17 07:24:57;;;;;;;2.90;1.23;;;20.80;86.70;;;;;;5124650;27;20036;-73
2022/07/17 07:27:23;;;;;;;1.77;1.17;;;20.80;86.60;;;;;;5125711;27;20073;-72
2022/07/17 07:29:49;;;;;;;1.88;1.20;;;20.90;86.50;;;;;;5125925;27;20994;-73
2022/07/17 07:32:15;;;;;;;2.53;1.70;;;20.90;86.20;;;;;;5125155;27;20040;-72
2022/07/17 07:34:40;;;;;;;4.30;1.83;;;20.90;86.10;;;;;;5126359;27;20497;-73
2022/07/17 07:37:06;;;;;;;1.67;1.33;;;21.00;86.00;;;;;;5124508;27;20063;-73
2022/07/17 07:39:32;;;;;;;3.65;1.50;;;21.00;85.90;;;;;;5123771;27;20043;-73
2022/07/17 07:41:58;;;;;;;3.70;1.30;;;21.00;85.70;;;;;;5127292;27;20132;-73
2022/07/17 07:44:23;;;;;;;3.30;1.25;;;21.10;85.70;;;;;;5127034;27;20043;-73
2022/07/17 07:46:49;;;;;;;3.65;1.63;;;21.20;85.60;;;;;;5126601;27;20032;-72
2022/07/17 07:49:15;;;;;;;2.90;2.10;;;21.20;85.50;;;;;;5123402;27;20040;-72
2022/07/17 07:51:41;;;;;;;2.47;1.67;;;21.30;85.50;;;;;;5124913;27;20078;-73
2022/07/17 07:54:07;;;;;;;3.17;1.70;;;21.30;85.40;;;;;;5124580;27;20039;-73
2022/07/17 07:56:33;;;;;;;2.88;1.20;;;21.40;85.30;;;;;;5126120;27;20049;-73
2022/07/17 07:58:59;;;;;;;4.40;1.48;;;21.40;85.20;;;;;;5125413;27;20062;-73
2022/07/17 08:01:25;;;;;;;4.68;1.48;;;21.50;85.10;;;;;;5109176;27;20062;-73
2022/07/17 08:03:50;;;;;;;2.08;1.38;;;21.60;85.30;;;;;;5125471;27;20040;-73
2022/07/17 08:06:16;;;;;;;3.28;1.25;;;21.60;85.00;;;;;;5124785;27;20043;-73
2022/07/17 08:08:42;;;;;;;4.35;1.42;;;21.70;84.80;;;;;;5125103;27;20596;-73
2022/07/17 08:11:08;;;;;;;2.33;1.38;;;21.70;84.60;;;;;;5126705;27;20045;-72
2022/07/17 08:13:33;;;;;;;3.00;1.40;;;21.90;84.50;;;;;;5125553;27;20042;-73
2022/07/17 08:15:59;;;;;;;5.25;1.50;;;22.00;84.50;;;;;;5126749;27;20046;-73
2022/07/17 08:18:26;;;;;;;2.45;1.15;;;22.10;84.40;;;;;;5123821;27;20586;-73
2022/07/17 08:20:53;;;;;;;3.40;1.30;;;22.20;84.10;;;;;;5108394;27;20139;-72
2022/07/17 08:23:19;;;;;;;1.67;1.17;;;22.20;84.00;;;;;;5123720;27;20092;-73
2022/07/17 08:25:47;;;;;;;2.95;1.40;;;22.20;83.80;;;;;;5124594;27;20525;-73
2022/07/17 08:28:13;;;;;;;2.45;1.30;;;22.20;83.90;;;;;;5122188;27;20162;-72
2022/07/17 08:30:39;;;;;;;1.92;1.08;;;22.20;83.70;;;;;;5122866;27;20138;-72
2022/07/17 08:33:07;;;;;;;3.13;1.27;;;22.20;83.50;;;;;;5123646;27;20611;-72
2022/07/17 08:35:34;;;;;;;3.30;1.77;;;22.20;83.30;;;;;;5138978;27;20055;-72
2022/07/17 08:38:00;;;;;;;5.18;1.40;;;22.10;83.30;;;;;;5125220;27;20040;-85
2022/07/17 08:40:28;;;;;;;3.15;1.42;;;22.10;83.40;;;;;;5127017;27;20064;-79
2022/07/17 08:42:56;;;;;;;3.40;1.27;;;22.10;83.30;;;;;;5129106;27;20044;-78
2022/07/17 08:45:23;;;;;;;1.92;1.20;;;22.20;83.40;;;;;;5128534;27;20035;-79
2022/07/17 08:47:51;;;;;;;5.38;1.58;;;22.20;83.20;;;;;;5122531;27;21362;-79
2022/07/17 08:50:30;;;;;;;2.55;1.98;;;22.20;83.20;;;;;;5124721;27;20468;-79
2022/07/17 08:52:56;;;;;;;4.60;1.92;;;22.20;83.10;;;;;;5126811;27;20126;-78
2022/07/17 08:55:22;;;;;;;2.00;1.10;;;22.30;82.90;;;;;;5122923;27;20042;-77
2022/07/17 08:57:48;;;;;;;3.28;1.30;;;22.30;82.80;;;;;;5124694;27;20047;-79
2022/07/17 09:00:20;;;;;;;2.03;1.10;;;22.40;82.80;;;;;;5123806;27;20111;-78
2022/07/17 09:02:57;;;;;;;3.22;1.50;;;22.40;82.60;;;;;;5123458;27;20571;-78
2022/07/17 09:05:25;;;;;;;1.70;1.58;;;22.50;82.30;;;;;;5122420;27;20043;-78
2022/07/17 09:07:51;;;;;;;5.95;1.40;;;22.60;82.30;;;;;;5125841;27;20052;-78
2022/07/17 09:10:17;;;;;;;2.67;1.35;;;22.50;82.00;;;;;;5125049;27;20052;-77
2022/07/17 09:12:43;;;;;;;2.28;1.33;;;22.50;81.80;;;;;;5124657;27;20070;-77
2022/07/17 09:15:19;;;;;;;3.33;1.60;;;22.60;81.80;;;;;;5123226;27;20040;-78
2022/07/17 09:17:52;;;;;;;3.63;2.13;;;22.60;81.80;;;;;;5124790;27;20047;-79
2022/07/17 09:20:20;;;;;;;1.75;1.27;;;22.60;81.60;;;;;;5122537;27;20052;-78
2022/07/17 09:23:00;;;;;;;3.08;1.35;;;22.60;81.30;;;;;;5122243;27;20054;-79
2022/07/17 09:25:52;;;;;;;3.60;1.92;;;22.70;81.20;;;;;;5124797;27;20053;-79
2022/07/17 09:28:20;;;;;;;2.28;1.38;;;22.70;80.80;;;;;;5122056;27;20059;-83
2022/07/17 09:30:52;;;;;;;2.83;1.20;;;22.70;80.80;;;;;;5121365;27;20059;-80
2022/07/17 09:33:19;;;;;;;;;;;22.80;80.80;;;;;;5124422;27;20050;-81
2022/07/17 09:35:53;;;;;;;3.55;1.70;;;22.80;80.70;;;;;;5124822;27;20444;-78
2022/07/17 09:38:38;;;;;;;2.55;1.25;;;22.80;80.80;;;;;;5123280;27;20032;-78
2022/07/17 09:41:11;;;;;;;3.13;1.70;;;22.90;80.80;;;;;;5123259;27;20552;-78
2022/07/17 09:43:50;;;;;;;2.28;1.35;;;22.90;80.60;;;;;;5120285;27;20055;-78
2022/07/17 09:46:19;;;;;;;1.85;1.05;;;23.00;80.50;;;;;;5123501;27;20027;-78
2022/07/17 09:48:50;;;;;;;6.85;1.50;;;23.00;80.20;;;;;;5123013;27;20043;-78
2022/07/17 09:51:18;;;;;;;2.50;1.63;;;23.10;80.20;;;;;;5124757;27;20442;-78
2022/07/17 09:53:48;;;;;;;2.67;1.40;;;23.10;80.10;;;;;;5122164;27;20039;-78
2022/07/17 09:56:20;;;;;;;2.67;1.60;;;23.20;79.90;;;;;;5124012;27;21249;-79
2022/07/17 09:58:51;;;;;;;2.38;1.08;;;23.20;79.70;;;;;;5124801;27;20046;-78
2022/07/17 10:01:17;;;;;;;1.85;1.10;;;23.30;79.50;;;;;;5123319;27;20150;-78
2022/07/17 10:03:44;;;;;;;1.23;0.88;;;23.30;79.20;;;;;;5120430;27;20043;-78
2022/07/17 10:06:11;;;;;;;1.48;1.00;;;23.40;78.80;;;;;;5123946;27;20067;-80
2022/07/17 10:08:38;;;;;;;2.10;1.20;;;23.40;78.50;;;;;;5122880;27;20164;-78
2022/07/17 10:11:09;;;;;;;2.15;1.25;;;23.40;78.60;;;;;;5124071;27;20055;-78
2022/07/17 10:13:45;;;;;;;4.70;1.23;;;23.40;78.80;;;;;;5116697;27;20052;-79
2022/07/17 10:16:13;;;;;;;2.90;1.13;;;23.50;78.60;;;;;;5126212;27;20126;-78
2022/07/17 10:18:41;;;;;;;2.78;1.58;;;23.50;78.20;;;;;;5124889;27;20118;-77
2022/07/17 10:21:18;;;;;;;2.40;1.40;;;23.60;78.00;;;;;;5125831;27;20132;-78
2022/07/17 10:24:05;;;;;;;2.70;1.15;;;23.70;77.80;;;;;;5107342;27;20047;-78
2022/07/17 10:26:32;;;;;;;2.88;1.20;;;23.70;78.20;;;;;;5125932;27;20102;-78
2022/07/17 10:28:58;;;;;;;5.18;1.30;;;23.80;77.10;;;;;;5123846;27;20513;-78
2022/07/17 10:31:26;;;;;;;2.28;1.00;;;23.90;76.30;;;;;;5122977;27;20040;-77
2022/07/17 10:34:06;;;;;;;1.42;1.10;;;23.90;75.80;;;;;;5123573;27;20449;-77
2022/07/17 10:36:42;;;;;;;3.92;1.52;;;24.00;75.20;;;;;;5124642;27;20031;-78
2022/07/17 10:39:15;;;;;;;2.42;1.10;;;24.00;74.70;;;;;;5123596;27;20051;-77
2022/07/17 10:41:42;;;;;;;4.03;1.10;;;24.00;74.80;;;;;;5107573;27;20044;-78
2022/07/17 10:44:08;;;;;;;1.88;1.23;;;24.00;75.00;;;;;;5123801;27;20074;-77
2022/07/17 10:46:34;;;;;;;3.05;1.38;;;24.00;74.60;;;;;;5124241;27;20043;-77
2022/07/17 10:49:03;;;;;;;1.83;1.20;;;24.00;74.30;;;;;;5126356;27;20137;-77
2022/07/17 10:51:30;;;;;;;2.13;1.33;;;24.10;74.40;;;;;;5122489;27;20043;-77
2022/07/17 10:53:58;;;;;;;2.22;1.42;;;24.10;74.50;;;;;;5125477;27;20045;-81
2022/07/17 10:56:25;;;;;;;2.53;1.42;;;24.10;74.40;;;;;;5126243;27;20043;-80
2022/07/17 10:58:52;;;;;;;2.10;1.23;;;24.20;74.30;;;;;;5126208;27;20111;-80
2022/07/17 11:01:19;;;;;;;3.90;1.30;;;24.30;74.10;;;;;;5128626;27;20043;-81
2022/07/17 11:03:48;;;;;;;2.75;1.17;;;24.40;73.70;;;;;;5124441;27;20051;-81
2022/07/17 11:06:18;;;;;;;2.10;1.40;;;24.50;73.50;;;;;;5128749;27;20469;-81
2022/07/17 11:08:51;;;;;;;1.92;1.15;;;24.60;72.90;;;;;;5127156;27;20560;-81
2022/07/17 11:11:34;;;;;;;3.30;1.52;;;24.50;72.60;;;;;;5127819;27;20047;-80
2022/07/17 11:14:10;;;;;;;3.45;1.38;;;24.60;72.60;;;;;;5127115;27;20643;-80
2022/07/17 11:16:37;;;;;;;5.38;1.42;;;24.60;72.70;;;;;;5127719;27;20539;-81
2022/07/17 11:19:03;;;;;;;1.60;1.00;;;24.50;72.80;;;;;;5127078;27;20536;-81
2022/07/17 11:21:30;;;;;;;2.30;1.65;;;24.50;72.90;;;;;;5128588;27;20039;-81
2022/07/17 11:23:57;;;;;;;2.90;1.42;;;24.40;72.90;;;;;;5126461;27;20096;-81
2022/07/17 11:26:23;;;;;;;2.10;1.10;;;24.50;73.00;;;;;;5125063;27;20563;-80
2022/07/17 11:28:51;;;;;;;2.35;1.45;;;24.50;72.90;;;;;;5124258;27;20604;-80
2022/07/17 11:31:20;;;;;;;3.40;2.20;;;24.50;72.70;;;;;;5124300;27;20043;-81
2022/07/17 11:33:54;;;;;;;4.40;1.48;;;24.60;72.40;;;;;;5125137;27;20040;-81
2022/07/17 11:36:31;;;;;;;5.15;1.60;;;24.70;72.00;;;;;;5127619;27;20043;-81
2022/07/17 11:38:59;;;;;;;1.52;1.05;;;24.80;72.00;;;;;;5109512;27;21290;-80
2022/07/17 11:41:47;;;;;;;4.05;1.30;;;24.90;72.00;;;;;;5125032;27;20047;-81
2022/07/17 11:44:18;;;;;;;2.50;1.48;;;25.00;71.80;;;;;;5109800;27;20066;-81
2022/07/17 11:46:45;;;;;;;2.75;1.40;;;25.00;71.60;;;;;;5126844;27;20568;-81
2022/07/17 11:49:22;;;;;;;3.33;1.33;;;25.10;71.60;;;;;;5126541;27;20051;-80
2022/07/17 11:51:48;;;;;;;5.28;1.52;;;25.10;71.60;;;;;;5111272;27;20048;-75
2022/07/17 11:54:16;;;;;;;2.75;1.58;;;25.10;71.70;;;;;;5126250;27;20118;-75
2022/07/17 11:56:43;;;;;;;1.65;1.23;;;25.10;71.60;;;;;;5125617;27;20605;-74
2022/07/17 11:59:10;;;;;;;4.40;1.67;;;25.20;71.70;;;;;;5127448;27;20034;-74
2022/07/17 12:01:43;;;;;;;5.63;1.80;;;25.20;71.30;;;;;;5125823;27;20109;-75
2022/07/17 12:04:11;;;;;;;1.90;1.20;;;25.20;70.90;;;;;;5127588;27;20095;-74
2022/07/17 12:06:37;;;;;;;3.70;1.52;;;25.30;70.70;;;;;;5125912;27;20043;-75
2022/07/17 12:09:05;;;;;;;2.67;1.20;;;25.30;70.30;;;;;;5123456;27;20518;-74
2022/07/17 12:11:31;;;;;;;3.20;1.45;;;25.30;70.10;;;;;;5126530;27;20043;-75
2022/07/17 12:14:05;;;;;;;3.45;1.38;;;25.30;70.10;;;;;;5124449;27;20039;-74
2022/07/17 12:16:32;;;;;;;1.38;0.98;;;25.30;70.00;;;;;;5125672;27;20035;-74
2022/07/17 12:19:05;;;;;;;1.85;1.30;;;25.30;70.60;;;;;;5124320;27;20477;-74
2022/07/17 12:21:55;;;;;;;2.90;1.20;;;25.30;69.80;;;;;;5125399;27;20048;-74
2022/07/17 12:24:32;;;;;;;1.75;1.35;;;25.40;69.70;;;;;;5139220;27;20044;-75
2022/07/17 12:27:01;;;;;;;3.03;1.42;;;25.40;69.80;;;;;;5124646;27;20074;-75
2022/07/17 12:29:27;;;;;;;2.22;1.23;;;25.40;69.40;;;;;;5124899;27;20641;-74
2022/07/17 12:32:05;;;;;;;2.88;1.40;;;25.40;69.50;;;;;;5125216;27;20543;-74
2022/07/17 12:34:31;;;;;;;4.75;1.10;;;25.40;69.60;;;;;;5108694;27;20557;-73
2022/07/17 12:36:56;;;;;;;3.28;1.45;;;25.50;69.80;;;;;;5125145;27;20040;-74
2022/07/17 12:39:22;;;;;;;3.38;1.40;;;25.50;69.80;;;;;;5126032;27;20043;-74
2022/07/17 12:41:48;;;;;;;1.75;1.20;;;25.50;70.00;;;;;;5125179;27;20144;-74
2022/07/17 12:44:14;;;;;;;2.97;1.35;;;25.50;70.10;;;;;;5124784;27;20043;-75
2022/07/17 12:46:39;;;;;;;5.10;1.30;;;25.60;70.20;;;;;;5124830;27;20042;-75
2022/07/17 12:49:05;;;;;;;2.13;1.00;;;25.60;70.20;;;;;;5124888;27;20517;-76